Time;durP1;ratioP1;P1;durP2;ratioP2;P2;SDS_P1;SDS_P2;PMS_P1;PMS_P2;Temp;Humidity;BMP_temperature;BMP_pressure;BME280_temperature;BME280_humidity;BME280_pressure;Samples;Min_cycle;Max_cycle;Signal;HPM_P1;HPM_P2
2022/09/13 00:00:38;;;;;;;;;;;18.30;99.90;;;;;;12430857;28;19944;-39
2022/09/13 00:06:40;;;;;;;;;;;18.30;99.90;;;;;;12432425;28;20297;-39
2022/09/13 00:12:42;;;;;;;;;;;18.30;99.90;;;;;;12438594;28;19929;-39
2022/09/13 00:18:43;;;;;;;;;;;18.30;99.90;;;;;;12424086;28;19922;-39
2022/09/13 00:24:45;;;;;;;;;;;18.20;99.90;;;;;;12428439;28;19925;-39
2022/09/13 00:30:47;;;;;;;;;;;18.10;99.90;;;;;;12432659;28;19976;-39
2022/09/13 00:36:48;;;;;;;;;;;18.10;99.90;;;;;;12437573;28;19944;-38
2022/09/13 00:42:50;;;;;;;;;;;18.10;99.90;;;;;;12430668;28;19929;-38
2022/09/13 00:48:54;;;;;;;;;;;18.00;99.90;;;;;;12433231;28;19932;-38
2022/09/13 00:54:58;;;;;;;;;;;18.00;99.90;;;;;;12436571;28;19932;-39
2022/09/13 01:01:02;;;;;;;;;;;18.00;99.90;;;;;;12419039;28;20286;-38
2022/09/13 01:07:06;;;;;;;;;;;17.90;99.90;;;;;;12424679;28;19931;-40
2022/09/13 01:13:18;;;;;;;;;;;17.90;99.90;;;;;;12426499;28;19925;-39
2022/09/13 01:19:22;;;;;;;;;;;17.80;99.90;;;;;;12428267;28;19921;-38
2022/09/13 01:25:42;;;;;;;;;;;17.80;99.90;;;;;;12422708;28;20333;-39
2022/09/13 01:31:47;;;;;;;;;;;17.80;99.90;;;;;;12427576;28;19980;-40
2022/09/13 01:38:07;;;;;;;;;;;17.80;99.90;;;;;;12435185;28;19928;-39
2022/09/13 01:44:08;;;;;;;;;;;17.70;99.90;;;;;;12431479;28;19929;-39
2022/09/13 01:50:24;;;;;;;;;;;17.70;99.90;;;;;;12437014;28;19921;-38
2022/09/13 01:56:36;;;;;;;;;;;17.60;99.90;;;;;;12439810;28;19925;-38
2022/09/13 02:02:40;;;;;;;;;;;17.60;99.90;;;;;;12433967;28;19929;-38
2022/09/13 02:08:42;;;;;;;;;;;17.60;99.90;;;;;;12433304;28;19925;-38
2022/09/13 02:14:47;;;;;;;;;;;17.70;99.90;;;;;;12439209;28;19925;-40
2022/09/13 02:20:50;;;;;;;;;;;17.70;99.90;;;;;;12424704;28;19921;-39
2022/09/13 02:26:53;;;;;;;;;;;17.60;99.90;;;;;;12435856;28;19929;-39
2022/09/13 02:32:57;;;;;;;;;;;17.60;99.90;;;;;;12435708;28;20050;-39
2022/09/13 02:39:00;;;;;;;;;;;17.70;99.90;;;;;;12442422;28;20364;-38
2022/09/13 02:45:04;;;;;;;;;;;17.60;99.90;;;;;;12435713;28;19929;-37
2022/09/13 02:51:18;;;;;;;;;;;17.40;99.90;;;;;;12441471;28;19926;-38
2022/09/13 02:57:22;;;;;;;;;;;17.40;99.90;;;;;;12434944;28;19928;-38
2022/09/13 03:03:24;;;;;;;;;;;17.40;99.90;;;;;;12435776;28;20392;-38
2022/09/13 03:09:26;;;;;;;;;;;17.00;99.90;;;;;;12440103;28;19926;-38
2022/09/13 03:15:45;;;;;;;;;;;16.50;99.90;;;;;;12439881;28;20666;-38
2022/09/13 03:21:53;;;;;;;;;;;16.50;99.90;;;;;;12431222;28;20393;-39
2022/09/13 03:28:07;;;;;;;;;;;16.70;99.90;;;;;;12437104;28;19921;-38
2022/09/13 03:34:12;;;;;;;;;;;16.90;99.90;;;;;;12422655;28;19925;-38
2022/09/13 03:40:24;;;;;;;;;;;16.80;99.90;;;;;;12434827;28;19944;-39
2022/09/13 03:46:39;;;;;;;;;;;16.70;99.90;;;;;;12437663;28;19932;-38
2022/09/13 03:52:41;;;;;;;;;;;16.70;99.90;;;;;;12428623;28;19925;-39
2022/09/13 03:58:47;;;;;;;;;;;16.70;99.90;;;;;;12421055;28;19921;-39
2022/09/13 04:04:49;;;;;;;;;;;16.70;99.90;;;;;;12428625;28;19964;-38
2022/09/13 04:10:51;;;;;;;;;;;16.70;99.90;;;;;;12428745;28;19928;-39
2022/09/13 04:16:54;;;;;;;;;;;16.70;99.90;;;;;;12431655;28;19925;-39
2022/09/13 04:22:56;;;;;;;;;;;16.90;99.90;;;;;;12437426;28;20392;-38
2022/09/13 04:28:58;;;;;;;;;;;17.00;99.90;;;;;;12440570;28;19933;-38
2022/09/13 04:34:59;;;;;;;;;;;16.90;99.90;;;;;;12429369;28;19921;-42
2022/09/13 04:41:01;;;;;;;;;;;17.00;99.90;;;;;;12418575;28;19921;-38
2022/09/13 04:47:02;;;;;;;;;;;17.00;99.90;;;;;;12440702;28;19929;-39
2022/09/13 04:53:04;;;;;;;;;;;17.00;99.90;;;;;;12430273;28;19929;-39
2022/09/13 04:59:06;;;;;;;;;;;17.10;99.90;;;;;;12436764;28;19948;-38
2022/09/13 05:05:07;;;;;;;;;;;17.20;99.90;;;;;;12422838;28;19925;-38
2022/09/13 05:11:09;;;;;;;;;;;17.20;99.90;;;;;;12417985;28;19922;-39
2022/09/13 05:17:11;;;;;;;;;;;17.20;99.90;;;;;;12427782;28;19925;-38
2022/09/13 05:23:12;;;;;;;;;;;17.20;99.90;;;;;;12434447;28;19925;-39
2022/09/13 05:29:14;;;;;;;;;;;17.30;99.90;;;;;;12426427;28;19928;-39
2022/09/13 05:35:15;;;;;;;;;;;17.30;99.90;;;;;;12420096;28;20095;-40
2022/09/13 05:41:17;;;;;;;;;;;17.30;99.90;;;;;;12417527;28;19926;-40
2022/09/13 05:47:19;;;;;;;;;;;17.30;99.90;;;;;;12428121;28;19922;-38
2022/09/13 05:53:20;;;;;;;;;;;17.30;99.90;;;;;;12432080;28;19929;-38
2022/09/13 05:59:22;;;;;;;;;;;17.30;99.90;;;;;;12428864;28;19926;-38
2022/09/13 06:05:24;;;;;;;;;;;17.40;99.90;;;;;;12423423;28;19921;-39
2022/09/13 06:11:32;;;;;;;;;;;17.40;99.90;;;;;;12428745;28;19925;-38
2022/09/13 06:17:33;;;;;;;;;;;17.40;99.90;;;;;;12418230;28;19948;-39
2022/09/13 06:23:35;;;;;;;;;;;17.50;99.90;;;;;;12427573;28;19929;-38
2022/09/13 06:29:37;;;;;;;;;;;17.50;99.90;;;;;;12426411;28;19925;-38
2022/09/13 06:35:39;;;;;;;;;;;17.70;99.90;;;;;;12432429;28;20351;-38
2022/09/13 06:41:40;;;;;;;;;;;17.70;99.90;;;;;;12430590;28;19921;-38
2022/09/13 06:47:42;;;;;;;;;;;17.80;99.90;;;;;;12441387;28;20008;-39
2022/09/13 06:53:45;;;;;;;;;;;17.90;99.90;;;;;;12431921;28;19930;-39
2022/09/13 06:59:47;;;;;;;;;;;17.90;99.90;;;;;;12430645;28;19925;-38
2022/09/13 07:05:48;;;;;;;;;;;17.90;99.90;;;;;;12437104;28;19925;-38
2022/09/13 07:11:52;;;;;;;;;;;17.90;99.90;;;;;;12426709;28;19928;-39
2022/09/13 07:17:53;;;;;;;;;;;17.90;99.90;;;;;;12436323;28;20289;-38
2022/09/13 07:23:55;;;;;;;;;;;17.90;99.90;;;;;;12435581;28;19929;-38
2022/09/13 07:29:57;;;;;;;;;;;17.90;99.90;;;;;;12435949;28;19925;-38
2022/09/13 07:36:02;;;;;;;;;;;18.00;99.90;;;;;;12435225;28;19925;-38
2022/09/13 07:42:04;;;;;;;;;;;17.90;99.90;;;;;;12431518;28;19921;-39
2022/09/13 07:48:05;;;;;;;;;;;17.90;99.90;;;;;;12433089;28;19944;-40
2022/09/13 07:54:11;;;;;;;;;;;17.90;99.90;;;;;;12426844;28;19926;-38
2022/09/13 08:00:13;;;;;;;;;;;18.10;99.90;;;;;;12433821;28;19921;-39
2022/09/13 08:06:15;;;;;;;;;;;18.10;99.90;;;;;;12437784;28;19921;-38
2022/09/13 08:12:17;;;;;;;;;;;18.30;99.90;;;;;;12422135;28;19932;-39
2022/09/13 08:18:18;;;;;;;;;;;18.30;99.90;;;;;;12431645;28;19929;-38
2022/09/13 08:24:20;;;;;;;;;;;18.30;99.90;;;;;;12419514;28;19932;-38
2022/09/13 08:30:22;;;;;;;;;;;18.40;99.90;;;;;;12425070;28;19928;-38
2022/09/13 08:36:25;;;;;;;;;;;18.40;99.90;;;;;;12426605;28;20409;-39
2022/09/13 08:42:32;;;;;;;;;;;18.40;99.90;;;;;;12427618;28;19925;-38
2022/09/13 08:48:35;;;;;;;;;;;18.40;99.90;;;;;;12429164;28;19925;-39
2022/09/13 08:54:36;;;;;;;;;;;18.50;99.90;;;;;;12426201;28;20084;-39
2022/09/13 09:00:39;;;;;;;;;;;18.60;99.90;;;;;;12431559;28;19921;-38
2022/09/13 09:06:41;;;;;;;;;;;18.60;99.90;;;;;;12428564;28;19967;-38
2022/09/13 09:12:45;;;;;;;;;;;18.60;99.90;;;;;;12426358;28;19929;-39
2022/09/13 09:18:48;;;;;;;;;;;18.60;99.90;;;;;;12433386;28;19921;-40
2022/09/13 09:24:53;;;;;;;;;;;18.60;99.90;;;;;;12420049;28;19930;-39
2022/09/13 09:30:59;;;;;;;;;;;18.70;99.90;;;;;;12434186;28;19929;-39
2022/09/13 09:37:10;;;;;;;;;;;18.80;99.90;;;;;;12427666;28;20012;-38
2022/09/13 09:43:18;;;;;;;;;;;18.90;99.90;;;;;;12414380;28;19926;-39
2022/09/13 09:55:56;;;;;;;;;;;19.00;99.90;;;;;;12430884;28;20442;-39
2022/09/13 10:01:59;;;;;;;;;;;19.10;99.90;;;;;;12425074;28;20282;-39
2022/09/13 10:08:04;;;;;;;;;;;19.20;99.90;;;;;;12441119;28;20031;-39
2022/09/13 10:14:05;;;;;;;;;;;19.30;99.90;;;;;;12426246;28;19928;-38
2022/09/13 10:20:13;;;;;;;;;;;19.40;99.90;;;;;;12431158;28;19929;-39
2022/09/13 10:26:17;;;;;;;;;;;19.50;99.90;;;;;;12428072;28;19922;-39
2022/09/13 10:32:19;;;;;;;;;;;19.60;99.90;;;;;;12438814;28;19921;-39
2022/09/13 10:38:40;;;;;;;;;;;19.40;99.90;;;;;;12434809;28;19971;-40
2022/09/13 10:45:06;;;;;;;;;;;19.30;99.90;;;;;;12436164;28;19925;-38
2022/09/13 10:51:20;;;;;;;;;;;19.20;99.90;;;;;;12432648;28;19929;-38
2022/09/13 10:57:31;;;;;;;;;;;19.30;99.90;;;;;;12434388;28;19925;-39
2022/09/13 11:03:43;;;;;;;;;;;19.40;99.90;;;;;;12440717;28;19922;-42
2022/09/13 11:10:01;;;;;;;;;;;19.30;99.90;;;;;;12419569;28;19922;-38
2022/09/13 11:16:03;;;;;;;;;;;19.30;99.90;;;;;;12436772;28;19929;-41
2022/09/13 11:22:23;;;;;;;;;;;19.40;99.90;;;;;;12431443;28;19929;-39
2022/09/13 11:28:38;;;;;;;;;;;19.40;99.90;;;;;;12427870;28;19944;-39
2022/09/13 11:35:01;;;;;;;;;;;19.30;99.90;;;;;;12436029;28;19921;-39
2022/09/13 11:41:18;;;;;;;;;;;19.40;99.90;;;;;;12424313;28;19921;-38
2022/09/13 11:47:31;;;;;;;;;;;19.70;99.90;;;;;;12431463;28;19996;-39
2022/09/13 11:53:38;;;;;;;;;;;19.80;99.90;;;;;;12426609;28;20385;-39
2022/09/13 11:59:43;;;;;;;;;;;19.70;99.90;;;;;;12416991;28;19922;-39
2022/09/13 12:05:54;;;;;;;;;;;19.60;99.90;;;;;;12430259;28;19928;-38
2022/09/13 12:12:12;;;;;;;;;;;19.80;99.90;;;;;;12438481;28;19944;-38
2022/09/13 12:18:20;;;;;;;;;;;19.70;99.90;;;;;;12436651;28;20360;-39
2022/09/13 12:24:34;;;;;;;;;;;19.60;99.90;;;;;;12430888;28;19936;-39
2022/09/13 12:30:41;;;;;;;;;;;19.70;99.90;;;;;;12432841;28;20278;-39
2022/09/13 12:36:50;;;;;;;;;;;19.70;99.90;;;;;;12434996;28;19941;-39
2022/09/13 12:42:55;;;;;;;;;;;19.90;99.90;;;;;;12434806;28;19921;-39
2022/09/13 12:49:10;;;;;;;;;;;20.20;99.90;;;;;;12429808;28;19921;-38
2022/09/13 12:55:18;;;;;;;;;;;20.10;99.90;;;;;;12431855;28;19921;-39
2022/09/13 13:01:44;;;;;;;;;;;20.20;99.90;;;;;;12423147;28;19929;-39
2022/09/13 13:07:50;;;;;;;;;;;20.20;99.90;;;;;;12428085;28;20060;-39
2022/09/13 13:14:08;;;;;;;;;;;20.20;99.90;;;;;;12433301;28;19928;-39
2022/09/13 13:20:28;;;;;;;;;;;20.10;99.90;;;;;;12431732;28;19968;-39
2022/09/13 13:26:50;;;;;;;;;;;20.00;99.90;;;;;;12424860;28;19929;-39
2022/09/13 13:33:12;;;;;;;;;;;19.90;99.90;;;;;;12422508;28;19922;-39
2022/09/13 13:39:25;;;;;;;;;;;19.90;99.90;;;;;;12399386;28;19928;-38
2022/09/13 13:45:28;;;;;;;;;;;20.00;99.90;;;;;;12433033;28;19929;-39
2022/09/13 13:51:29;;;;;;;;;;;20.20;99.90;;;;;;12431349;28;20017;-40
2022/09/13 13:57:31;;;;;;;;;;;20.40;99.90;;;;;;12431146;28;19925;-39
2022/09/13 14:03:39;;;;;;;;;;;20.80;99.90;;;;;;12434176;28;19928;-38
2022/09/13 14:09:50;;;;;;;;;;;20.70;99.90;;;;;;12433999;28;19921;-41
2022/09/13 14:16:04;;;;;;;;;;;20.80;99.90;;;;;;12438285;28;19929;-39
2022/09/13 14:22:12;;;;;;;;;;;20.90;99.90;;;;;;12431883;28;19948;-39
2022/09/13 14:28:18;;;;;;;;;;;21.10;99.90;;;;;;12434326;28;20289;-39
2022/09/13 14:34:27;;;;;;;;;;;21.30;99.90;;;;;;12440140;28;19933;-40
2022/09/13 14:40:29;;;;;;;;;;;21.30;99.90;;;;;;12426983;28;20656;-39
2022/09/13 14:46:36;;;;;;;;;;;21.00;99.90;;;;;;12441609;28;19929;-39
2022/09/13 14:52:45;;;;;;;;;;;20.90;99.90;;;;;;12438750;28;19926;-39
2022/09/13 14:58:49;;;;;;;;;;;21.00;99.90;;;;;;12427976;28;19921;-39
2022/09/13 15:04:54;;;;;;;;;;;21.40;99.90;;;;;;12436598;28;19921;-40
2022/09/13 15:10:56;;;;;;;;;;;21.60;99.90;;;;;;12432577;28;20293;-39
2022/09/13 15:17:09;;;;;;;;;;;21.90;99.90;;;;;;12437122;28;19936;-40
2022/09/13 15:23:17;;;;;;;;;;;21.70;99.90;;;;;;12424229;28;20396;-39
2022/09/13 15:29:19;;;;;;;;;;;21.80;99.90;;;;;;12430429;28;19922;-39
2022/09/13 15:35:22;;;;;;;;;;;22.40;99.90;;;;;;12432370;28;19932;-39
2022/09/13 15:41:27;;;;;;;;;;;22.70;99.90;;;;;;12432690;28;19926;-39
2022/09/13 15:47:29;;;;;;;;;;;22.60;99.90;;;;;;12430186;28;19925;-40
2022/09/13 15:53:30;;;;;;;;;;;22.60;99.90;;;;;;12429188;28;19925;-39
2022/09/13 15:59:32;;;;;;;;;;;23.00;99.90;;;;;;12428261;28;19921;-40
2022/09/13 16:05:35;;;;;;;;;;;23.00;99.90;;;;;;12427751;28;20396;-39
2022/09/13 16:11:37;;;;;;;;;;;22.60;99.90;;;;;;12433256;28;19932;-39
2022/09/13 16:17:39;;;;;;;;;;;22.50;99.90;;;;;;12431826;28;20377;-39
2022/09/13 16:23:41;;;;;;;;;;;22.30;99.90;;;;;;12429979;28;19932;-39
2022/09/13 16:29:50;;;;;;;;;;;21.80;99.90;;;;;;12737678;27;20362;-40
2022/09/13 16:35:51;;;;;;;;;;;21.40;99.90;;;;;;12612341;28;19964;-38
2022/09/13 16:41:53;;;;;;;;;;;21.00;99.90;;;;;;12609975;28;20323;-39
2022/09/13 16:47:55;;;;;;;;;;;20.90;99.90;;;;;;12615547;28;19924;-39
2022/09/13 16:53:56;;;;;;;;;;;20.80;99.90;;;;;;12612127;28;19939;-38
2022/09/13 16:59:58;;;;;;;;;;;20.70;99.90;;;;;;12613865;28;19939;-38
2022/09/13 17:06:01;;;;;;;;;;;20.50;99.90;;;;;;12606610;28;19924;-40
2022/09/13 17:12:03;;;;;;;;;;;20.40;99.90;;;;;;12603707;28;19924;-38
2022/09/13 17:18:04;;;;;;;;;;;20.40;99.90;;;;;;12619857;28;20291;-39
2022/09/13 17:24:06;;;;;;;;;;;20.30;99.90;;;;;;12614300;28;19935;-38
2022/09/13 17:30:14;;;;;;;;;;;20.10;99.90;;;;;;12614582;28;19969;-38
2022/09/13 17:36:16;;;;;;;;;;;19.90;99.90;;;;;;12608925;28;19928;-38
2022/09/13 17:42:17;;;;;;;;;;;19.90;99.90;;;;;;12578552;28;19935;-38
2022/09/13 17:48:23;;;;;;;;;;;19.70;99.90;;;;;;12587616;28;20002;-39
2022/09/13 17:54:25;;;;;;;;;;;19.60;99.90;;;;;;12568636;28;19931;-37
2022/09/13 18:00:27;;;;;;;;;;;19.60;99.90;;;;;;12577492;28;19939;-38
2022/09/13 18:06:29;;;;;;;;;;;19.50;99.90;;;;;;12581172;28;19928;-38
2022/09/13 18:12:31;;;;;;;;;;;19.40;99.90;;;;;;12567511;28;20276;-37
2022/09/13 18:18:33;;;;;;;;;;;19.30;99.90;;;;;;12586621;28;19928;-38
2022/09/13 18:24:35;;;;;;;;;;;19.10;99.90;;;;;;12585249;28;19932;-38
2022/09/13 18:30:37;;;;;;;;;;;19.00;99.90;;;;;;12580619;28;19929;-38
2022/09/13 18:36:39;;;;;;;;;;;18.70;99.90;;;;;;12578929;28;19940;-38
2022/09/13 18:42:41;;;;;;;;;;;18.70;99.90;;;;;;12554662;28;19932;-38
2022/09/13 18:48:47;;;;;;;;;;;18.40;99.90;;;;;;12572699;28;19925;-38
2022/09/13 18:54:49;;;;;;;;;;;18.30;99.90;;;;;;12569918;28;19975;-39
2022/09/13 19:01:04;;;;;;;;;;;18.10;99.90;;;;;;12562339;28;20388;-40
2022/09/13 19:07:06;;;;;;;;;;;18.10;99.90;;;;;;12574769;28;19925;-40
2022/09/13 19:13:09;;;;;;;;;;;18.00;99.90;;;;;;12576929;28;19931;-38
2022/09/13 19:19:11;;;;;;;;;;;17.60;99.90;;;;;;12575537;28;19929;-39
2022/09/13 19:25:13;;;;;;;;;;;17.60;99.90;;;;;;12577145;28;19933;-37
2022/09/13 19:31:14;;;;;;;;;;;17.70;99.90;;;;;;12570278;28;19931;-38
2022/09/13 19:37:16;;;;;;;;;;;17.60;99.90;;;;;;12573033;28;19929;-39
2022/09/13 19:43:18;;;;;;;;;;;17.60;99.90;;;;;;12574686;28;20010;-38
2022/09/13 19:49:20;;;;;;;;;;;17.60;99.90;;;;;;12570323;28;19924;-41
2022/09/13 19:55:22;;;;;;;;;;;17.50;99.90;;;;;;12569398;28;19933;-38
2022/09/13 20:01:25;;;;;;;;;;;17.50;99.90;;;;;;12559922;28;19924;-38
2022/09/13 20:07:26;;;;;;;;;;;17.50;99.90;;;;;;12582274;28;19932;-37
2022/09/13 20:13:28;;;;;;;;;;;17.40;99.90;;;;;;12559730;28;19929;-39
2022/09/13 20:19:30;;;;;;;;;;;17.20;99.90;;;;;;12574669;28;19928;-38
2022/09/13 20:25:50;;;;;;;;;;;17.10;99.90;;;;;;12574525;28;19924;-38
2022/09/13 20:31:54;;;;;;;;;;;17.10;99.90;;;;;;12579655;28;19955;-38
2022/09/13 20:37:55;;;;;;;;;;;17.00;99.90;;;;;;12573930;28;19928;-38
2022/09/13 20:44:00;;;;;;;;;;;17.00;99.90;;;;;;12561010;28;19929;-40
2022/09/13 20:50:05;;;;;;;;;;;17.10;99.90;;;;;;12565170;28;19928;-38
2022/09/13 20:56:16;;;;;;;;;;;17.10;99.90;;;;;;12554838;28;19932;-38
2022/09/13 21:02:18;;;;;;;;;;;17.20;99.90;;;;;;12562059;28;20391;-38
2022/09/13 21:14:40;;;;;;;;;;;17.20;99.90;;;;;;12566872;28;19928;-38
2022/09/13 21:20:42;;;;;;;;;;;17.10;99.90;;;;;;12554460;28;19925;-38
2022/09/13 21:26:43;;;;;;;;;;;17.00;99.90;;;;;;12570452;28;19940;-38
2022/09/13 21:32:45;;;;;;;;;;;16.90;99.90;;;;;;12580171;28;19931;-38
2022/09/13 21:38:47;;;;;;;;;;;16.90;99.90;;;;;;12583986;28;19929;-39
2022/09/13 21:44:48;;;;;;;;;;;16.90;99.90;;;;;;12580416;28;19929;-38
2022/09/13 21:50:50;;;;;;;;;;;16.80;99.90;;;;;;12588022;28;20520;-39
2022/09/13 21:56:53;;;;;;;;;;;16.70;99.90;;;;;;12576640;28;19925;-39
2022/09/13 22:02:54;;;;;;;;;;;16.70;99.90;;;;;;12569949;28;19924;-39
2022/09/13 22:08:57;;;;;;;;;;;16.60;99.90;;;;;;12580839;28;19928;-38
2022/09/13 22:14:58;;;;;;;;;;;16.60;99.90;;;;;;12571106;28;19946;-40
2022/09/13 22:21:07;;;;;;;;;;;16.50;99.90;;;;;;12588044;28;19932;-38
2022/09/13 22:27:09;;;;;;;;;;;16.50;99.90;;;;;;12577535;28;20303;-38
2022/09/13 22:33:10;;;;;;;;;;;16.40;99.90;;;;;;12585363;28;19924;-38
2022/09/13 22:39:13;;;;;;;;;;;16.20;99.90;;;;;;12555562;28;20358;-39
2022/09/13 22:45:14;;;;;;;;;;;16.10;99.90;;;;;;12575809;28;20288;-39
2022/09/13 22:51:17;;;;;;;;;;;16.20;99.90;;;;;;12574744;28;19924;-38
2022/09/13 22:57:19;;;;;;;;;;;16.10;99.90;;;;;;12561879;28;20299;-38
2022/09/13 23:03:20;;;;;;;;;;;16.00;99.90;;;;;;12577618;28;19935;-39
2022/09/13 23:09:22;;;;;;;;;;;16.10;99.90;;;;;;12573532;28;19930;-39
2022/09/13 23:15:24;;;;;;;;;;;15.90;99.90;;;;;;12563738;28;19928;-39
2022/09/13 23:21:29;;;;;;;;;;;16.00;99.90;;;;;;12563932;28;19935;-39
2022/09/13 23:27:31;;;;;;;;;;;16.10;99.90;;;;;;12571144;28;19935;-39
2022/09/13 23:33:33;;;;;;;;;;;15.90;99.90;;;;;;12576543;28;19929;-39
2022/09/13 23:39:34;;;;;;;;;;;15.90;99.90;;;;;;12570804;28;19928;-38
2022/09/13 23:45:36;;;;;;;;;;;15.80;99.90;;;;;;12574560;28;19924;-38
2022/09/13 23:51:38;;;;;;;;;;;15.70;99.90;;;;;;12578946;28;19968;-39
2022/09/13 23:57:39;;;;;;;;;;;15.70;99.90;;;;;;12560805;28;19925;-38
